Time;durP1;ratioP1;P1;durP2;ratioP2;P2;SDS_P1;SDS_P2;PMS_P1;PMS_P2;Temp;Humidity;BMP_temperature;BMP_pressure;BME280_temperature;BME280_humidity;BME280_pressure;Samples;Min_cycle;Max_cycle;Signal;HPM_P1;HPM_P2
2024/01/20 00:00:03;;;;;;;2.40;2.30;;;;;;;-3.30;100.00;97861.53;29371;231;64014;-58
2024/01/20 00:00:35;;;;;;;1.83;1.73;;;;;;;-3.20;100.00;97869.22;29373;224;63005;-58
2024/01/20 00:01:06;;;;;;;0.98;0.98;;;;;;;-3.16;100.00;97857.25;29373;203;63009;-59
2024/01/20 00:01:37;;;;;;;0.80;0.80;;;;;;;-3.14;100.00;97857.88;29373;199;63005;-59
2024/01/20 00:02:08;;;;;;;0.80;0.80;;;;;;;-3.16;100.00;97857.25;29373;220;63009;-59
2024/01/20 00:02:40;;;;;;;0.80;0.80;;;;;;;-3.21;100.00;97859.63;29371;256;64009;-58
2024/01/20 00:03:12;;;;;;;0.80;0.80;;;;;;;-3.24;100.00;97865.28;29373;210;63009;-59
2024/01/20 00:03:43;;;;;;;0.80;0.80;;;;;;;-3.29;100.00;97862.34;29373;200;63004;-58
2024/01/20 00:04:15;;;;;;;0.80;0.80;;;;;;;-3.29;100.00;97867.66;29373;202;63009;-59
2024/01/20 00:04:46;;;;;;;0.80;0.80;;;;;;;-3.31;100.00;97859.06;29373;215;63004;-59
2024/01/20 00:05:17;;;;;;;0.73;0.73;;;;;;;-3.31;100.00;97859.87;29373;221;63009;-58
2024/01/20 00:05:49;;;;;;;0.80;0.80;;;;;;;-3.31;100.00;97861.69;29373;208;63004;-58
2024/01/20 00:06:23;;;;;;;0.80;0.80;;;;;;;-3.30;100.00;97858.87;29373;250;63005;-59
2024/01/20 00:06:54;;;;;;;0.77;0.77;;;;;;;-3.30;100.00;97860.69;29373;209;63005;-59
2024/01/20 00:07:26;;;;;;;1.45;1.45;;;;;;;-3.29;100.00;97862.34;29373;220;63009;-59
2024/01/20 00:07:57;;;;;;;0.70;0.70;;;;;;;-3.32;100.00;97854.75;29371;203;64009;-59
2024/01/20 00:08:28;;;;;;;0.70;0.70;;;;;;;-3.35;100.00;97855.09;29371;216;64013;-58
2024/01/20 00:08:59;;;;;;;0.70;0.70;;;;;;;-3.42;100.00;97855.81;29373;250;63005;-59
2024/01/20 00:09:31;;;;;;;0.70;0.70;;;;;;;-3.42;100.00;97852.34;29373;225;63009;-59
2024/01/20 00:10:10;;;;;;;0.70;0.70;;;;;;;-3.42;100.00;97847.88;29373;227;63005;-58
2024/01/20 00:10:44;;;;;;;0.80;0.80;;;;;;;-3.42;100.00;97852.34;29371;197;64013;-59
2024/01/20 00:11:15;;;;;;;0.70;0.70;;;;;;;-3.44;100.00;97846.41;29373;208;63004;-58
2024/01/20 00:11:46;;;;;;;0.70;0.70;;;;;;;-3.45;100.00;97853.53;29373;204;63009;-59
2024/01/20 00:12:18;;;;;;;0.80;0.80;;;;;;;-3.47;100.00;97850.25;29373;202;63004;-59
2024/01/20 00:12:51;;;;;;;0.70;0.70;;;;;;;-3.52;100.00;97852.63;29371;260;64013;-59
2024/01/20 00:13:24;;;;;;;0.80;0.80;;;;;;;-3.52;100.00;97855.28;29373;258;63004;-58
2024/01/20 00:13:55;;;;;;;0.70;0.70;;;;;;;-3.52;100.00;97852.63;29371;201;64014;-59
2024/01/20 00:14:26;;;;;;;0.80;0.80;;;;;;;-3.53;100.00;97845.69;29373;214;63005;-58
2024/01/20 00:14:58;;;;;;;0.70;0.70;;;;;;;-3.52;100.00;97847.31;29373;219;63009;-59
2024/01/20 00:15:29;;;;;;;0.70;0.70;;;;;;;-3.54;100.00;97857.28;29373;209;63005;-58
2024/01/20 00:16:00;;;;;;;1.00;1.00;;;;;;;-3.55;100.00;97853.00;29373;210;63009;-58
2024/01/20 00:16:35;;;;;;;0.70;0.70;;;;;;;-3.56;100.00;97851.34;29371;239;64009;-59
2024/01/20 00:17:06;;;;;;;0.80;0.80;;;;;;;-3.57;100.00;97855.00;29373;250;63009;-59
2024/01/20 00:17:38;;;;;;;0.70;0.70;;;;;;;-3.55;100.00;97853.00;29371;197;64009;-59
2024/01/20 00:18:10;;;;;;;0.70;0.70;;;;;;;-3.51;100.00;97846.31;29373;244;63009;-58
2024/01/20 00:18:41;;;;;;;0.73;0.73;;;;;;;-3.48;100.00;97853.09;29371;198;64009;-59
2024/01/20 00:19:12;;;;;;;0.80;0.80;;;;;;;-3.49;100.00;97846.97;29373;227;63011;-58
2024/01/20 00:19:43;;;;;;;0.70;0.70;;;;;;;-3.48;100.00;97847.78;29373;199;63004;-59
2024/01/20 00:20:15;;;;;;;0.70;0.70;;;;;;;-3.51;100.00;97846.31;29371;204;64030;-59
2024/01/20 00:20:46;;;;;;;0.70;0.70;;;;;;;-3.55;100.00;97847.69;29373;222;63004;-59
2024/01/20 00:21:26;;;;;;;0.70;0.70;;;;;;;-3.62;100.00;97846.75;29373;273;63008;-59
2024/01/20 00:21:57;;;;;;;0.75;0.75;;;;;;;-3.58;100.00;97847.22;29373;291;63012;-59
2024/01/20 00:22:29;;;;;;;0.70;0.70;;;;;;;-3.56;100.00;97848.69;29373;264;63013;-59
2024/01/20 00:23:00;;;;;;;0.70;0.70;;;;;;;-3.58;100.00;97853.34;29373;226;63005;-59
2024/01/20 00:23:31;;;;;;;0.80;0.80;;;;;;;-3.58;100.00;97858.66;29373;233;63009;-58
2024/01/20 00:24:04;;;;;;;0.70;0.70;;;;;;;-3.58;100.00;97852.53;29373;205;63012;-59
2024/01/20 00:24:36;;;;;;;0.73;0.73;;;;;;;-3.58;100.00;97853.34;29373;261;63009;-58
2024/01/20 00:25:08;;;;;;;0.70;0.70;;;;;;;-3.59;100.00;97858.81;29371;223;64009;-58
2024/01/20 00:25:40;;;;;;;0.70;0.70;;;;;;;-3.58;100.00;97857.81;29373;230;63009;-59
2024/01/20 00:26:15;;;;;;;0.70;0.70;;;;;;;-3.58;100.00;97858.66;29373;203;63004;-59
2024/01/20 00:26:46;;;;;;;0.70;0.70;;;;;;;-3.61;100.00;97853.69;29373;280;63009;-60
2024/01/20 00:27:18;;;;;;;0.70;0.70;;;;;;;-3.63;100.00;97854.88;29371;222;64009;-59
2024/01/20 00:27:50;;;;;;;0.70;0.70;;;;;;;-3.67;100.00;97854.41;29371;206;64013;-59
2024/01/20 00:28:21;;;;;;;0.80;0.80;;;;;;;-3.67;100.00;97858.91;29371;196;64008;-59
2024/01/20 00:28:52;;;;;;;0.70;0.70;;;;;;;-3.71;100.00;97856.59;29373;257;63009;-58
2024/01/20 00:29:25;;;;;;;2.10;1.95;;;;;;;-3.73;100.00;97860.44;29373;206;63005;-58
2024/01/20 00:29:58;;;;;;;0.80;0.80;;;;;;;-3.77;100.00;97854.66;29373;244;63009;-59
2024/01/20 00:30:32;;;;;;;0.80;0.80;;;;;;;-3.79;100.00;97851.34;29373;202;63005;-58
2024/01/20 00:31:04;;;;;;;0.70;0.70;;;;;;;-3.82;100.00;97851.75;29373;280;63009;-58
2024/01/20 00:31:36;;;;;;;0.70;0.70;;;;;;;-3.84;100.00;97861.69;29373;218;63005;-60
2024/01/20 00:32:07;;;;;;;0.80;0.80;;;;;;;-3.85;100.00;97861.88;29373;222;63009;-59
2024/01/20 00:32:40;;;;;;;0.70;0.70;;;;;;;-3.85;100.00;97856.56;29371;271;64009;-59
2024/01/20 00:33:12;;;;;;;0.70;0.70;;;;;;;-3.85;100.00;97861.88;29373;306;63009;-59
2024/01/20 00:33:44;;;;;;;0.70;0.70;;;;;;;-3.87;100.00;97861.22;29373;246;63004;-59
2024/01/20 00:34:16;;;;;;;1.02;1.02;;;;;;;-3.86;100.00;97854.94;29373;202;63009;-58
2024/01/20 00:34:47;;;;;;;0.80;0.80;;;;;;;-3.83;100.00;97857.22;29373;298;63004;-58
2024/01/20 00:35:19;;;;;;;0.80;0.80;;;;;;;-3.84;100.00;97852.94;29373;240;63008;-59
2024/01/20 00:35:50;;;;;;;0.80;0.80;;;;;;;-3.82;100.00;97850.91;29373;276;63004;-59
2024/01/20 00:36:23;;;;;;;0.70;0.70;;;;;;;-3.81;100.00;97852.56;29373;241;63008;-59
2024/01/20 00:36:54;;;;;;;0.70;0.70;;;;;;;-3.82;100.00;97845.63;29373;204;63005;-59
2024/01/20 00:37:26;;;;;;;0.77;0.77;;;;;;;-3.80;100.00;97854.19;29373;204;63009;-59
2024/01/20 00:37:57;;;;;;;0.80;0.80;;;;;;;-3.80;100.00;97841.75;29371;222;64009;-59
2024/01/20 00:38:29;;;;;;;0.80;0.80;;;;;;;-3.79;100.00;97845.22;29373;272;63009;-59
2024/01/20 00:39:00;;;;;;;3.25;3.15;;;;;;;-3.79;100.00;97845.22;29373;225;63005;-59
2024/01/20 00:39:31;;;;;;;0.80;0.80;;;;;;;-3.77;100.00;97848.53;29373;199;63009;-59
2024/01/20 00:40:04;;;;;;;0.75;0.75;;;;;;;-3.72;100.00;97848.81;29373;292;63004;-60
2024/01/20 00:40:35;;;;;;;0.70;0.70;;;;;;;-3.69;100.00;97845.00;29373;284;63009;-58
2024/01/20 00:41:07;;;;;;;0.80;0.80;;;;;;;-3.64;100.00;97843.44;29373;210;63004;-58
2024/01/20 00:41:38;;;;;;;0.70;0.70;;;;;;;-3.58;100.00;97845.38;29373;236;63009;-58
2024/01/20 00:42:09;;;;;;;0.70;0.70;;;;;;;-3.57;100.00;97844.37;29373;287;63004;-59
2024/01/20 00:42:42;;;;;;;0.77;0.77;;;;;;;-3.61;100.00;97842.28;29373;261;63008;-59
2024/01/20 00:43:14;;;;;;;0.80;0.80;;;;;;;-3.65;100.00;97847.09;29371;203;64009;-58
2024/01/20 00:43:46;;;;;;;0.70;0.70;;;;;;;-3.67;100.00;97849.13;29373;218;63009;-58
2024/01/20 00:44:17;;;;;;;0.70;0.70;;;;;;;-3.72;100.00;97846.16;29373;270;63005;-60
2024/01/20 00:44:48;;;;;;;0.70;0.70;;;;;;;-3.73;100.00;97847.16;29373;249;63009;-59
2024/01/20 00:45:23;;;;;;;0.80;0.80;;;;;;;-3.74;100.00;97848.16;29373;197;63005;-60
2024/01/20 00:45:54;;;;;;;0.70;0.70;;;;;;;-3.75;100.00;97857.97;29372;202;63009;-58
2024/01/20 00:46:25;;;;;;;0.70;0.70;;;;;;;-3.76;100.00;97856.31;29373;199;63005;-58
2024/01/20 00:46:57;;;;;;;0.70;0.70;;;;;;;-3.77;100.00;97854.66;29373;215;63009;-58
2024/01/20 00:47:33;;;;;;;0.73;0.73;;;;;;;-3.78;100.00;97857.50;29373;214;63004;-59
2024/01/20 00:48:06;;;;;;;1.02;1.02;;;;;;;-3.81;100.00;97852.56;29373;267;63009;-58
2024/01/20 00:48:37;;;;;;;0.70;0.70;;;;;;;-3.82;100.00;97861.53;29371;208;64009;-58
2024/01/20 00:49:09;;;;;;;0.80;0.80;;;;;;;-3.85;100.00;97852.09;29373;219;63009;-59
2024/01/20 00:49:40;;;;;;;0.70;0.70;;;;;;;-3.85;100.00;97856.56;29373;210;63004;-58
2024/01/20 00:50:12;;;;;;;0.80;0.80;;;;;;;-3.88;100.00;97855.09;29373;215;63008;-58
2024/01/20 00:50:43;;;;;;;0.70;0.70;;;;;;;-3.90;100.00;97856.28;29373;286;63005;-59
2024/01/20 00:51:15;;;;;;;0.80;0.80;;;;;;;-3.89;100.00;97855.28;29373;213;63009;-58
2024/01/20 00:51:47;;;;;;;0.88;0.88;;;;;;;-3.89;100.00;97860.59;29373;203;63005;-58
2024/01/20 00:52:18;;;;;;;0.70;0.70;;;;;;;-3.86;100.00;97860.22;29373;228;63009;-58
2024/01/20 00:52:50;;;;;;;0.80;0.80;;;;;;;-3.83;100.00;97858.06;29371;214;64009;-60
2024/01/20 00:53:22;;;;;;;0.80;0.80;;;;;;;-3.78;100.00;97860.13;29371;243;64013;-58
2024/01/20 00:53:55;;;;;;;0.70;0.70;;;;;;;-3.75;100.00;97865.09;29373;206;63014;-58
2024/01/20 00:54:26;;;;;;;0.80;0.80;;;;;;;-3.75;100.00;97857.13;29373;218;63009;-59
2024/01/20 00:54:57;;;;;;;0.80;0.80;;;;;;;-3.75;100.00;97863.25;29373;221;63004;-58
2024/01/20 00:55:29;;;;;;;0.70;0.70;;;;;;;-3.76;100.00;97866.09;29373;208;63009;-58
2024/01/20 00:56:03;;;;;;;0.70;0.70;;;;;;;-3.76;100.00;97861.59;29373;213;63004;-58
2024/01/20 00:56:34;;;;;;;0.70;0.70;;;;;;;-3.77;100.00;97867.09;29373;218;63009;-60
2024/01/20 00:57:07;;;;;;;0.70;0.70;;;;;;;-3.76;100.00;97866.09;29373;208;63004;-59
2024/01/20 00:57:38;;;;;;;0.73;0.73;;;;;;;-3.77;100.00;97869.75;29373;210;63008;-58
2024/01/20 00:58:10;;;;;;;0.82;0.82;;;;;;;-3.77;100.00;97864.44;29373;220;63008;-59
2024/01/20 00:58:41;;;;;;;0.70;0.70;;;;;;;-3.77;100.00;97864.44;29371;261;64014;-58
2024/01/20 00:59:13;;;;;;;0.70;0.70;;;;;;;-3.77;100.00;97872.41;29373;227;63005;-58
2024/01/20 00:59:45;;;;;;;0.80;0.80;;;;;;;-3.78;100.00;97870.75;29373;215;63009;-58
2024/01/20 01:00:17;;;;;;;0.80;0.80;;;;;;;-3.80;100.00;97868.28;29371;254;64009;-58
2024/01/20 01:00:48;;;;;;;0.70;0.70;;;;;;;-3.79;100.00;97871.75;29372;237;63009;-59
2024/01/20 01:01:20;;;;;;;0.70;0.70;;;;;;;-3.80;100.00;97864.78;29373;229;63005;-58
2024/01/20 01:01:52;;;;;;;0.70;0.70;;;;;;;-3.82;100.00;97862.34;29373;216;63009;-60
2024/01/20 01:02:25;;;;;;;0.80;0.80;;;;;;;-3.83;100.00;97866.00;29373;215;63005;-58
2024/01/20 01:03:00;;;;;;;0.70;0.70;;;;;;;-3.82;100.00;97861.53;29373;230;63009;-61
2024/01/20 01:03:32;;;;;;;0.77;0.77;;;;;;;-3.82;100.00;97857.06;29372;222;64004;-58
2024/01/20 01:04:06;;;;;;;0.80;0.80;;;;;;;-3.81;100.00;97860.53;29373;219;63009;-58
2024/01/20 01:04:38;;;;;;;0.70;0.70;;;;;;;-3.80;100.00;97867.44;29371;211;64009;-58
2024/01/20 01:05:10;;;;;;;0.70;0.70;;;;;;;-3.81;100.00;97863.97;29372;253;64008;-58
2024/01/20 01:05:41;;;;;;;0.75;0.75;;;;;;;-3.82;100.00;97866.84;29373;221;63004;-59
2024/01/20 01:06:13;;;;;;;2.45;2.35;;;;;;;-3.83;100.00;97871.31;29373;219;63009;-59
2024/01/20 01:06:44;;;;;;;0.70;0.70;;;;;;;-3.82;100.00;97866.84;29373;238;63005;-59
2024/01/20 01:07:17;;;;;;;0.73;0.73;;;;;;;-3.84;100.00;97867.00;29373;214;63009;-58
2024/01/20 01:07:49;;;;;;;0.80;0.80;;;;;;;-3.84;100.00;97863.53;29373;235;63005;-58
2024/01/20 01:08:20;;;;;;;0.70;0.70;;;;;;;-3.85;100.00;97872.50;29373;227;63009;-59
2024/01/20 01:08:52;;;;;;;0.70;0.70;;;;;;;-3.87;100.00;97870.00;29373;202;63005;-59
2024/01/20 01:09:23;;;;;;;0.70;0.70;;;;;;;-3.87;100.00;97866.53;29372;202;64009;-58
2024/01/20 01:09:55;;;;;;;0.80;0.80;;;;;;;-3.87;100.00;97869.19;29371;237;64009;-58
2024/01/20 01:10:27;;;;;;;0.70;0.70;;;;;;;-3.87;100.00;97863.88;29373;220;63009;-58
2024/01/20 01:10:58;;;;;;;0.80;0.80;;;;;;;-3.87;100.00;97869.19;29373;204;63004;-59
2024/01/20 01:11:30;;;;;;;0.80;0.80;;;;;;;-3.87;100.00;97869.19;29373;197;63009;-59
2024/01/20 01:12:01;;;;;;;0.80;0.80;;;;;;;-3.87;100.00;97870.00;29373;197;63004;-58
2024/01/20 01:12:34;;;;;;;0.70;0.70;;;;;;;-3.87;100.00;97874.50;29373;276;63008;-59
2024/01/20 01:13:05;;;;;;;0.70;0.70;;;;;;;-3.86;100.00;97871.66;29373;205;63004;-58
2024/01/20 01:13:39;;;;;;;0.77;0.77;;;;;;;-3.85;100.00;97867.19;29373;197;63009;-58
2024/01/20 01:14:11;;;;;;;0.70;0.70;;;;;;;-3.84;100.00;97874.13;29373;259;63005;-60
2024/01/20 01:14:42;;;;;;;0.80;0.80;;;;;;;-3.82;100.00;97865.00;29373;280;63009;-58
2024/01/20 01:15:15;;;;;;;0.80;0.80;;;;;;;-3.79;100.00;97866.44;29371;237;64009;-59
2024/01/20 01:15:47;;;;;;;0.70;0.70;;;;;;;-3.77;100.00;97872.41;29373;206;63009;-58
2024/01/20 01:16:20;;;;;;;0.70;0.70;;;;;;;-3.79;100.00;97867.28;29371;227;64009;-58
2024/01/20 01:16:52;;;;;;;0.70;0.70;;;;;;;-3.80;100.00;97875.41;29373;262;63009;-58
2024/01/20 01:17:25;;;;;;;0.70;0.70;;;;;;;-3.83;100.00;97873.97;29373;235;63005;-58
2024/01/20 01:17:57;;;;;;;0.80;0.80;;;;;;;-3.82;100.00;97869.47;29373;247;63009;-58
2024/01/20 01:18:29;;;;;;;0.70;0.70;;;;;;;-3.80;100.00;97865.63;29373;244;63004;-59
2024/01/20 01:19:00;;;;;;;0.70;0.70;;;;;;;-3.75;100.00;97867.75;29373;224;63009;-58
2024/01/20 01:19:31;;;;;;;0.70;0.70;;;;;;;-3.73;100.00;97866.56;29373;198;63004;-60
2024/01/20 01:20:04;;;;;;;0.80;0.80;;;;;;;-3.73;100.00;97865.72;29373;211;63008;-57
2024/01/20 01:20:35;;;;;;;0.70;0.70;;;;;;;-3.75;100.00;97862.44;29373;208;63004;-58
2024/01/20 01:21:07;;;;;;;0.70;0.70;;;;;;;-3.81;100.00;97868.47;29371;271;64014;-59
2024/01/20 01:21:38;;;;;;;0.70;0.70;;;;;;;-3.84;100.00;97874.13;29371;261;64009;-59
2024/01/20 01:22:11;;;;;;;0.70;0.70;;;;;;;-3.89;100.00;97865.88;29373;199;63009;-58
2024/01/20 01:22:42;;;;;;;0.70;0.70;;;;;;;-3.90;100.00;97873.00;29373;286;63005;-58
2024/01/20 01:23:14;;;;;;;0.70;0.70;;;;;;;-3.91;100.00;97868.72;29373;240;63009;-59
2024/01/20 01:23:48;;;;;;;2.90;2.80;;;;;;;-3.90;100.00;97869.53;29373;206;63009;-58
2024/01/20 01:24:19;;;;;;;0.80;0.80;;;;;;;-3.89;100.00;97876.50;29373;232;63009;-59
2024/01/20 01:24:54;;;;;;;0.70;0.70;;;;;;;-3.91;100.00;97870.53;29373;233;63005;-58
2024/01/20 01:25:25;;;;;;;0.70;0.70;;;;;;;-3.92;100.00;97866.25;29373;198;63009;-59
2024/01/20 01:25:57;;;;;;;0.80;0.80;;;;;;;-3.92;100.00;97868.88;29373;218;63004;-59
2024/01/20 01:26:28;;;;;;;1.02;1.02;;;;;;;-3.87;100.00;97879.78;29373;261;63009;-58
2024/01/20 01:27:00;;;;;;;0.80;0.80;;;;;;;-3.86;100.00;97874.31;29371;232;64009;-59
2024/01/20 01:27:31;;;;;;;0.70;0.70;;;;;;;-3.87;100.00;97872.66;29373;231;63009;-58
2024/01/20 01:28:03;;;;;;;0.70;0.70;;;;;;;-3.88;100.00;97868.38;29373;224;63000;-58
2024/01/20 01:28:34;;;;;;;0.77;0.77;;;;;;;-3.90;100.00;97874.84;29373;205;63009;-59
2024/01/20 01:29:06;;;;;;;0.80;0.80;;;;;;;-3.91;100.00;97874.03;29373;217;63005;-58
2024/01/20 01:29:37;;;;;;;0.70;0.70;;;;;;;-3.92;100.00;97874.19;29373;215;63009;-58
2024/01/20 01:30:10;;;;;;;0.73;0.73;;;;;;;-3.93;100.00;97876.03;29373;229;63005;-58
2024/01/20 01:30:42;;;;;;;0.70;0.70;;;;;;;-3.92;100.00;97882.16;29373;220;63009;-59
2024/01/20 01:31:13;;;;;;;0.70;0.70;;;;;;;-3.92;100.00;97871.53;29373;245;63005;-58
2024/01/20 01:31:45;;;;;;;0.75;0.75;;;;;;;-3.93;100.00;97883.97;29373;207;63009;-58
2024/01/20 01:32:17;;;;;;;0.77;0.77;;;;;;;-3.91;100.00;97873.19;29371;197;64009;-59
2024/01/20 01:32:51;;;;;;;0.70;0.70;;;;;;;-3.91;100.00;97884.63;29373;207;63009;-60
2024/01/20 01:33:22;;;;;;;1.55;1.55;;;;;;;-3.92;100.00;97888.28;29373;227;63004;-58
2024/01/20 01:33:54;;;;;;;0.80;0.80;;;;;;;-3.91;100.00;97886.44;29373;198;63009;-58
2024/01/20 01:34:25;;;;;;;0.82;0.82;;;;;;;-3.90;100.00;97888.09;29373;204;63004;-59
2024/01/20 01:34:56;;;;;;;0.70;0.70;;;;;;;-3.89;100.00;97884.44;29373;214;63008;-58
2024/01/20 01:35:27;;;;;;;0.80;0.80;;;;;;;-3.91;100.00;97889.09;29373;214;63004;-58
2024/01/20 01:35:59;;;;;;;0.70;0.70;;;;;;;-3.93;100.00;97880.50;29373;258;63009;-60
2024/01/20 01:36:30;;;;;;;1.10;1.10;;;;;;;-3.91;100.00;97889.09;29373;257;63005;-58
2024/01/20 01:37:02;;;;;;;0.80;0.80;;;;;;;-3.91;100.00;97889.09;29371;202;64013;-58
2024/01/20 01:37:34;;;;;;;0.80;0.80;;;;;;;-3.91;100.00;97894.41;29373;258;63005;-58
2024/01/20 01:38:05;;;;;;;0.70;0.70;;;;;;;-3.91;100.00;97884.63;29371;212;64013;-58
2024/01/20 01:38:37;;;;;;;0.80;0.80;;;;;;;-3.91;100.00;97895.22;29373;282;63005;-58
2024/01/20 01:39:08;;;;;;;0.80;0.80;;;;;;;-3.95;100.00;97899.22;29373;202;63009;-58
2024/01/20 01:39:41;;;;;;;0.80;0.80;;;;;;;-3.96;100.00;97896.75;29373;204;63004;-58
2024/01/20 01:40:13;;;;;;;0.70;0.70;;;;;;;-3.94;100.00;97900.06;29371;227;64013;-59
2024/01/20 01:40:47;;;;;;;0.90;0.90;;;;;;;-3.94;100.00;97905.34;29373;302;63004;-58
2024/01/20 01:41:19;;;;;;;0.80;0.80;;;;;;;-3.93;100.00;97907.00;29373;215;63009;-59
2024/01/20 01:41:50;;;;;;;1.00;1.00;;;;;;;-3.95;100.00;97898.41;29373;244;63004;-59
2024/01/20 01:42:22;;;;;;;0.70;0.70;;;;;;;-3.95;100.00;97903.72;29373;241;63008;-58
2024/01/20 01:42:56;;;;;;;0.70;0.70;;;;;;;-3.96;100.00;97913.50;29373;233;63005;-58
2024/01/20 01:43:28;;;;;;;0.75;0.75;;;;;;;-3.99;100.00;97907.72;29373;210;63009;-59
2024/01/20 01:43:59;;;;;;;0.80;0.80;;;;;;;-3.96;100.00;97907.34;29371;220;64009;-58
2024/01/20 01:44:32;;;;;;;0.70;0.70;;;;;;;-3.98;100.00;97909.34;29373;202;63009;-59
2024/01/20 01:45:04;;;;;;;0.80;0.80;;;;;;;-4.03;100.00;97906.41;29373;212;63005;-58
2024/01/20 01:45:36;;;;;;;0.70;0.70;;;;;;;-4.06;100.00;97908.41;29371;225;64013;-58
2024/01/20 01:46:12;;;;;;;0.80;0.80;;;;;;;-4.06;100.00;97911.06;29373;199;63005;-58
2024/01/20 01:46:44;;;;;;;0.80;0.80;;;;;;;-4.06;100.00;97907.59;29373;220;63009;-59
2024/01/20 01:47:15;;;;;;;0.80;0.80;;;;;;;-4.06;100.00;97900.44;29371;209;64009;-58
2024/01/20 01:47:46;;;;;;;0.80;0.80;;;;;;;-4.07;100.00;97906.75;29373;199;63009;-58
2024/01/20 01:48:18;;;;;;;0.80;0.80;;;;;;;-4.06;100.00;97905.75;29371;253;64009;-59
2024/01/20 01:48:50;;;;;;;0.80;0.80;;;;;;;-4.05;100.00;97911.88;29373;257;63009;-58
2024/01/20 01:49:23;;;;;;;0.80;0.80;;;;;;;-4.06;100.00;97897.81;29373;228;63004;-58
2024/01/20 01:49:54;;;;;;;0.70;0.70;;;;;;;-4.07;100.00;97896.16;29372;274;63008;-58
2024/01/20 01:50:27;;;;;;;0.80;0.80;;;;;;;-4.08;100.00;97905.09;29373;248;63005;-58
2024/01/20 01:51:01;;;;;;;0.80;0.80;;;;;;;-4.09;100.00;97905.28;29373;259;63009;-58
2024/01/20 01:51:34;;;;;;;0.80;0.80;;;;;;;-4.11;100.00;97905.44;29373;222;63005;-58
2024/01/20 01:52:06;;;;;;;1.02;1.02;;;;;;;-4.12;100.00;97905.63;29373;198;63009;-58
2024/01/20 01:52:38;;;;;;;0.75;0.75;;;;;;;-4.15;100.00;97893.56;29373;233;63005;-59
2024/01/20 01:53:11;;;;;;;0.70;0.70;;;;;;;-4.12;100.00;97902.97;29371;199;64013;-60
2024/01/20 01:53:45;;;;;;;0.80;0.80;;;;;;;-4.14;100.00;97894.38;29373;228;63005;-58
2024/01/20 01:54:19;;;;;;;0.80;0.80;;;;;;;-4.14;100.00;97897.03;29371;237;64013;-58
2024/01/20 01:54:53;;;;;;;0.80;0.80;;;;;;;-4.15;100.00;97893.56;29373;223;63004;-58
2024/01/20 01:55:26;;;;;;;0.80;0.80;;;;;;;-4.13;100.00;97885.44;29373;203;63009;-58
2024/01/20 01:55:58;;;;;;;0.80;0.80;;;;;;;-4.12;100.00;97898.50;29372;213;63004;-59
2024/01/20 01:56:30;;;;;;;0.80;0.80;;;;;;;-4.10;100.00;97890.37;29373;226;63009;-59
2024/01/20 01:57:05;;;;;;;0.80;0.80;;;;;;;-4.06;100.00;97891.69;29372;248;63004;-58
2024/01/20 01:57:38;;;;;;;0.80;0.80;;;;;;;-4.06;100.00;97889.84;29371;196;64013;-58
2024/01/20 01:58:10;;;;;;;0.80;0.80;;;;;;;-4.04;100.00;97881.72;29373;265;63005;-58
2024/01/20 01:58:47;;;;;;;0.80;0.80;;;;;;;-4.03;100.00;97896.63;29373;220;63009;-58
2024/01/20 01:59:21;;;;;;;0.80;0.80;;;;;;;-4.04;100.00;97889.69;29373;250;63005;-58
2024/01/20 01:59:53;;;;;;;0.80;0.80;;;;;;;-4.03;100.00;97887.84;29373;206;63020;-58
2024/01/20 02:00:24;;;;;;;0.80;0.80;;;;;;;-4.02;100.00;97886.84;29371;258;64009;-59
2024/01/20 02:00:57;;;;;;;0.80;0.80;;;;;;;-4.02;100.00;97892.16;29373;204;63009;-59
2024/01/20 02:01:28;;;;;;;0.70;0.70;;;;;;;-4.02;100.00;97886.84;29373;278;63005;-60
2024/01/20 02:01:59;;;;;;;0.80;0.80;;;;;;;-4.00;100.00;97892.81;29373;197;63009;-58
2024/01/20 02:02:31;;;;;;;0.80;0.80;;;;;;;-4.07;100.00;97880.25;29373;209;63004;-58
2024/01/20 02:03:03;;;;;;;0.80;0.80;;;;;;;-4.11;100.00;97884.25;29373;224;63009;-59
2024/01/20 02:03:34;;;;;;;0.70;0.70;;;;;;;-4.15;100.00;97877.66;29373;216;63004;-58
2024/01/20 02:04:06;;;;;;;0.80;0.80;;;;;;;-4.17;100.00;97882.31;29373;214;63009;-59
2024/01/20 02:04:37;;;;;;;1.62;1.52;;;;;;;-4.14;100.00;97889.91;29373;236;63004;-59
2024/01/20 02:05:10;;;;;;;0.70;0.70;;;;;;;-4.12;100.00;97887.91;29373;262;63008;-59
2024/01/20 02:05:41;;;;;;;0.80;0.80;;;;;;;-4.10;100.00;97890.37;29371;234;64009;-59
2024/01/20 02:06:13;;;;;;;0.80;0.80;;;;;;;-4.11;100.00;97881.59;29373;251;63009;-59
2024/01/20 02:06:44;;;;;;;0.80;0.80;;;;;;;-4.11;100.00;97883.44;29373;197;63005;-59
2024/01/20 02:07:17;;;;;;;0.70;0.70;;;;;;;-4.13;100.00;97890.72;29373;221;63009;-59
2024/01/20 02:07:50;;;;;;;0.70;0.70;;;;;;;-4.14;100.00;97892.56;29373;212;63005;-60
2024/01/20 02:08:25;;;;;;;0.80;0.80;;;;;;;-4.15;100.00;97888.25;29373;209;63009;-59
2024/01/20 02:08:57;;;;;;;0.80;0.80;;;;;;;-4.16;100.00;97885.81;29373;213;63018;-60
2024/01/20 02:09:30;;;;;;;0.70;0.70;;;;;;;-4.17;100.00;97884.97;29371;202;64013;-58
2024/01/20 02:10:01;;;;;;;0.80;0.80;;;;;;;-4.16;100.00;97880.50;29373;265;63011;-58
2024/01/20 02:10:33;;;;;;;0.73;0.73;;;;;;;-4.16;100.00;97880.50;29373;210;63009;-58
2024/01/20 02:11:05;;;;;;;0.80;0.80;;;;;;;-4.12;100.00;97887.91;29371;242;64009;-58
2024/01/20 02:11:38;;;;;;;0.73;0.73;;;;;;;-4.11;100.00;97884.25;29373;210;63009;-59
2024/01/20 02:12:16;;;;;;;0.80;0.80;;;;;;;-4.12;100.00;97882.59;29373;196;63004;-58
2024/01/20 02:12:49;;;;;;;0.75;0.75;;;;;;;-4.15;100.00;97882.13;29373;202;63008;-58
2024/01/20 02:13:21;;;;;;;0.80;0.80;;;;;;;-4.17;100.00;97884.97;29373;224;63009;-59
2024/01/20 02:13:53;;;;;;;1.37;1.37;;;;;;;-4.14;100.00;97884.59;29371;249;64014;-59
2024/01/20 02:14:25;;;;;;;0.80;0.80;;;;;;;-4.13;100.00;97885.44;29373;198;63005;-59
2024/01/20 02:14:59;;;;;;;0.80;0.80;;;;;;;-4.13;100.00;97886.25;29373;262;63009;-58
2024/01/20 02:15:32;;;;;;;0.73;0.73;;;;;;;-4.14;100.00;97881.94;29371;246;64009;-58
2024/01/20 02:16:04;;;;;;;0.70;0.70;;;;;;;-4.14;100.00;97883.78;29373;213;63009;-59
2024/01/20 02:16:36;;;;;;;0.77;0.77;;;;;;;-4.12;100.00;97882.59;29373;203;63005;-57
2024/01/20 02:17:08;;;;;;;0.70;0.70;;;;;;;-4.08;100.00;97883.06;29371;252;64013;-58
2024/01/20 02:17:52;;;;;;;0.80;0.80;;;;;;;-4.03;100.00;97879.91;29373;233;63015;-58
2024/01/20 02:18:24;;;;;;;0.70;0.70;;;;;;;-3.99;100.00;97881.19;29373;212;63009;-58
2024/01/20 02:19:05;;;;;;;0.80;0.80;;;;;;;-4.01;100.00;97884.03;29373;215;63004;-59
2024/01/20 02:19:40;;;;;;;0.70;0.70;;;;;;;-4.03;100.00;97877.25;29373;225;63008;-58
2024/01/20 02:20:12;;;;;;;0.80;0.80;;;;;;;-4.08;100.00;97883.91;29373;260;63004;-59
2024/01/20 02:20:44;;;;;;;0.80;0.80;;;;;;;-4.11;100.00;97881.59;29371;206;64014;-58
2024/01/20 02:21:15;;;;;;;0.80;0.80;;;;;;;-4.13;100.00;97886.25;29373;206;63001;-59
2024/01/20 02:21:46;;;;;;;0.80;0.80;;;;;;;-4.15;100.00;97882.13;29373;222;63009;-58
2024/01/20 02:22:18;;;;;;;0.80;0.80;;;;;;;-4.14;100.00;97881.13;29373;215;63005;-58
2024/01/20 02:22:53;;;;;;;0.80;0.80;;;;;;;-4.11;100.00;97883.44;29371;237;64013;-58
2024/01/20 02:23:25;;;;;;;0.80;0.80;;;;;;;-4.11;100.00;97886.91;29373;223;63005;-59
2024/01/20 02:23:59;;;;;;;1.10;1.10;;;;;;;-4.05;100.00;97893.31;29373;212;63009;-58
2024/01/20 02:24:31;;;;;;;1.85;1.75;;;;;;;-4.02;100.00;97886.84;29373;229;63005;-58
2024/01/20 02:25:04;;;;;;;0.80;0.80;;;;;;;-4.08;100.00;97883.91;29373;197;63009;-58
2024/01/20 02:25:35;;;;;;;0.80;0.80;;;;;;;-4.12;100.00;97887.91;29373;244;63004;-58
2024/01/20 02:26:06;;;;;;;0.80;0.80;;;;;;;-4.13;100.00;97886.25;29373;222;63009;-58
2024/01/20 02:26:40;;;;;;;0.70;0.70;;;;;;;-4.15;100.00;97888.25;29373;199;63004;-60
2024/01/20 02:27:12;;;;;;;1.52;1.50;;;;;;;-4.09;100.00;97884.91;29373;218;63008;-59
2024/01/20 02:27:43;;;;;;;0.80;0.80;;;;;;;-4.08;100.00;97886.56;29372;215;64004;-58
2024/01/20 02:28:15;;;;;;;0.70;0.70;;;;;;;-4.09;100.00;97882.25;29371;205;64014;-59
2024/01/20 02:28:46;;;;;;;0.80;0.80;;;;;;;-4.09;100.00;97884.06;29373;220;63005;-58
2024/01/20 02:29:20;;;;;;;0.80;0.80;;;;;;;-4.09;100.00;97882.25;29373;231;63009;-58
2024/01/20 02:29:51;;;;;;;0.70;0.70;;;;;;;-4.11;100.00;97886.91;29373;202;63005;-58
2024/01/20 02:30:25;;;;;;;0.73;0.73;;;;;;;-4.12;100.00;97882.59;29373;261;63009;-58
2024/01/20 02:30:56;;;;;;;1.98;1.95;;;;;;;-4.13;100.00;97878.31;29373;209;63005;-58
2024/01/20 02:31:27;;;;;;;0.70;0.70;;;;;;;-4.15;100.00;97872.34;29373;208;63015;-59